Etusivu
METAR-TAF:

METAR-TAF

Lentoasemat :

Haugesund, Norja

Leveyspiiri: 59-21N, Pituuspiiri: 005-13E, korkeus merenpinnasta: 2 m

Tämänhetkinen sää

Tämä raportti tehtiin 22 minuuttia sitten, kello 12.20 UTC
Tuuli 16 kn idästä/kaakosta
Lämpötila 12°C
Kosteus 47%
Ilmanpaine 1013 hPa
Näkyvyys 10 km tai enemmän
Muutamia pilviä 3800 ft:n korkeudessa
Hajonneita pilviä 4200 ft:n korkeudessa

METAR: ENHD 191220Z 11016KT 9999 FEW038 BKN042 12/01 Q1013

Aika: 14:42 (12:42 UTC)

Sääennuste

Tämä raportti tehtiin 1 tunti ja 42 minuuttia sitten, kello 11.00 UTC
Ennuste voimassa 19. päivästä klo 12 UTC - 19. päivään klo 21 UTC
Tuuli 15 kn idästä/kaakosta
Näkyvyys 10 km tai enemmän
Muutamia pilviä 3500 ft:n korkeudessa
Hajonneita pilviä 4500 ft:n korkeudessa
Ajoittain
19. päivästä klo 12 UTC - 19. päivään klo 21 UTC
Tuuli 20 kn idästä/kaakosta puuskistuen 30 kn:hen

TAF: ENHD 191100Z 1912/1921 11015KT 9999 FEW035 BKN045 TEMPO 1912/1921 12020G30KT

Säähavainnot ja -ennusteet yli 4000 lentoasemalta (METAR- ja TAF-raportit).

Käytössä olevat sääasemat on merkitty karttaan keltaisilla ja punaisilla pisteillä.

Aseta hiiri pisteen päälle nähdäksesi sääaseman nimen.

Klikkaa sitten nähdäksesi säähavainnot ja -ennusteet.

Kartan vaihtaminen: klikkaa mustalla rastilla varustettuja vihreitä pisteitä, niin voit zoomata sisään; viivalla varustettua vihreää pistettä, niin voit zoomata ulos tai vihreitä nuolia, niin pääset viereisille kartoille.


METAR-TAF: